Time,TemperatureF,DewpointF,PressureIn,WindDirection,WindDirectionDegrees,WindSpeedMPH,WindSpeedGustMPH,Humidity,HourlyPrecipIn,Conditions,Clouds,dailyrainin,SoftwareType,DateUTC
2013-02-08 00:00:00,22.6,16.2,30.48,N/A,-737280,0.0,-999.0,76,0.00,,,0.00,Wunderground v.1.15,2013-02-08 05:00:00,
2013-02-08 00:05:00,22.6,16.2,30.48,N/A,-737280,0.0,-999.0,76,0.00,,,0.00,Wunderground v.1.15,2013-02-08 05:05:00,
2013-02-08 00:10:00,22.6,16.2,30.48,N/A,-737280,0.0,-999.0,76,0.00,,,0.00,Wunderground v.1.15,2013-02-08 05:10:00,
2013-02-08 00:15:00,22.5,16.1,30.47,N/A,-737280,0.0,-999.0,76,0.00,,,0.00,Wunderground v.1.15,2013-02-08 05:15:00,
2013-02-08 00:20:00,22.5,16.1,30.47,N/A,-737280,0.0,-999.0,76,0.00,,,0.00,Wunderground v.1.15,2013-02-08 05:20:00,
2013-02-08 00:25:00,22.4,16.0,30.46,N/A,-737280,0.0,-999.0,76,0.00,,,0.00,Wunderground v.1.15,2013-02-08 05:25:00,
2013-02-08 00:30:00,22.4,16.0,30.46,N/A,-737280,0.0,-999.0,76,0.00,,,0.00,Wunderground v.1.15,2013-02-08 05:30:00,
2013-02-08 00:35:00,22.5,16.4,30.46,NE,45,0.0,-999.0,77,0.00,,,0.00,Wunderground v.1.15,2013-02-08 05:35:00,
2013-02-08 00:40:00,22.5,16.4,30.46,NE,45,0.0,-999.0,77,0.00,,,0.00,Wunderground v.1.15,2013-02-08 05:40:00,
2013-02-08 00:45:00,22.8,17.0,30.45,NE,45,0.0,-999.0,78,0.00,,,0.00,Wunderground v.1.15,2013-02-08 05:45:00,
2013-02-08 00:50:00,22.8,17.0,30.45,NE,45,0.0,-999.0,78,0.00,,,0.00,Wunderground v.1.15,2013-02-08 05:50:00,
2013-02-08 00:55:00,23.1,17.3,30.44,NE,45,0.0,-999.0,78,0.00,,,0.00,Wunderground v.1.15,2013-02-08 05:55:00,
2013-02-08 01:00:00,23.1,17.3,30.44,NE,45,0.0,-999.0,78,0.00,,,0.00,Wunderground v.1.15,2013-02-08 06:00:00,
2013-02-08 01:05:00,23.4,17.6,30.44,NE,45,0.0,-999.0,78,0.00,,,0.00,Wunderground v.1.15,2013-02-08 06:05:00,
2013-02-08 01:10:00,23.4,17.6,30.44,NE,45,0.0,-999.0,78,0.00,,,0.00,Wunderground v.1.15,2013-02-08 06:10:00,
2013-02-08 01:15:00,23.6,17.7,30.44,NE,45,0.0,-999.0,78,0.00,,,0.00,Wunderground v.1.15,2013-02-08 06:15:00,
2013-02-08 01:20:00,23.6,17.7,30.44,NE,45,0.0,-999.0,78,0.00,,,0.00,Wunderground v.1.15,2013-02-08 06:20:00,
2013-02-08 01:25:00,23.7,18.1,30.43,NE,45,0.0,-999.0,79,0.00,,,0.00,Wunderground v.1.15,2013-02-08 06:25:00,
2013-02-08 01:30:00,23.7,18.1,30.43,NE,45,0.0,-999.0,79,0.00,,,0.00,Wunderground v.1.15,2013-02-08 06:30:00,
2013-02-08 01:35:00,23.9,18.6,30.43,NE,45,0.0,-999.0,80,0.00,,,0.00,Wunderground v.1.15,2013-02-08 06:35:00,
2013-02-08 01:40:00,23.9,18.6,30.43,NE,45,0.0,-999.0,80,0.00,,,0.00,Wunderground v.1.15,2013-02-08 06:40:00,
2013-02-08 01:45:00,24.0,19.0,30.42,NE,45,0.0,-999.0,81,0.00,,,0.00,Wunderground v.1.15,2013-02-08 06:45:00,
2013-02-08 01:50:00,24.0,19.0,30.42,NE,45,0.0,-999.0,81,0.00,,,0.00,Wunderground v.1.15,2013-02-08 06:50:00,
2013-02-08 01:55:00,24.2,19.5,30.42,NE,45,1.0,-999.0,82,0.00,,,0.00,Wunderground v.1.15,2013-02-08 06:55:00,
2013-02-08 02:00:00,24.2,19.5,30.42,NE,45,1.0,-999.0,82,0.00,,,0.00,Wunderground v.1.15,2013-02-08 07:00:00,
2013-02-08 02:05:00,24.4,20.0,30.41,NE,45,1.0,-999.0,83,0.00,,,0.00,Wunderground v.1.15,2013-02-08 07:05:00,
2013-02-08 02:10:00,24.4,20.0,30.41,NE,45,1.0,-999.0,83,0.00,,,0.00,Wunderground v.1.15,2013-02-08 07:10:00,
2013-02-08 02:15:00,24.7,20.6,30.41,NE,45,0.0,-999.0,84,0.00,,,0.00,Wunderground v.1.15,2013-02-08 07:15:00,
2013-02-08 02:20:00,24.7,20.6,30.41,NE,45,0.0,-999.0,84,0.00,,,0.00,Wunderground v.1.15,2013-02-08 07:20:00,
2013-02-08 02:25:00,24.9,21.0,30.41,NE,45,0.0,-999.0,85,0.00,,,0.00,Wunderground v.1.15,2013-02-08 07:25:00,
2013-02-08 02:30:00,24.9,21.0,30.41,NE,45,0.0,-999.0,85,0.00,,,0.00,Wunderground v.1.15,2013-02-08 07:30:00,
2013-02-08 02:35:00,25.1,21.2,30.40,NE,45,0.0,-999.0,85,0.00,,,0.00,Wunderground v.1.15,2013-02-08 07:35:00,
2013-02-08 02:40:00,25.1,21.2,30.40,NE,45,0.0,-999.0,85,0.00,,,0.00,Wunderground v.1.15,2013-02-08 07:40:00,
2013-02-08 02:45:00,25.3,21.7,30.40,NE,45,0.0,-999.0,86,0.00,,,0.00,Wunderground v.1.15,2013-02-08 07:45:00,
2013-02-08 02:50:00,25.3,21.7,30.40,NE,45,0.0,-999.0,86,0.00,,,0.00,Wunderground v.1.15,2013-02-08 07:50:00,
2013-02-08 02:55:00,25.7,22.6,30.39,NE,45,0.0,-999.0,88,0.00,,,0.00,Wunderground v.1.15,2013-02-08 07:55:00,
2013-02-08 03:00:00,25.7,22.6,30.39,NE,45,0.0,-999.0,88,0.00,,,0.00,Wunderground v.1.15,2013-02-08 08:00:00,
2013-02-08 03:05:00,26.1,23.3,30.39,NE,45,0.0,-999.0,89,0.00,,,0.00,Wunderground v.1.15,2013-02-08 08:05:00,
2013-02-08 03:10:00,26.1,23.3,30.39,NE,45,0.0,-999.0,89,0.00,,,0.00,Wunderground v.1.15,2013-02-08 08:10:00,
2013-02-08 03:15:00,26.4,23.3,30.38,NE,45,0.0,-999.0,88,0.00,,,0.00,Wunderground v.1.15,2013-02-08 08:15:00,
2013-02-08 03:20:00,26.4,23.3,30.38,NE,45,0.0,-999.0,88,0.00,,,0.00,Wunderground v.1.15,2013-02-08 08:20:00,
2013-02-08 03:25:00,26.6,23.8,30.38,NE,45,0.0,-999.0,89,0.00,,,0.00,Wunderground v.1.15,2013-02-08 08:25:00,
2013-02-08 03:30:00,26.6,23.8,30.38,NE,45,0.0,-999.0,89,0.00,,,0.00,Wunderground v.1.15,2013-02-08 08:30:00,
2013-02-08 03:35:00,26.8,24.0,30.38,NE,45,0.0,-999.0,89,0.00,,,0.00,Wunderground v.1.15,2013-02-08 08:35:00,
2013-02-08 03:40:00,26.8,24.0,30.38,NE,45,0.0,-999.0,89,0.00,,,0.00,Wunderground v.1.15,2013-02-08 08:40:00,
2013-02-08 03:45:00,27.0,24.2,30.37,ENE,68,0.0,-999.0,89,0.00,,,0.00,Wunderground v.1.15,2013-02-08 08:45:00,
2013-02-08 03:50:00,27.0,24.2,30.37,ENE,68,0.0,-999.0,89,0.00,,,0.00,Wunderground v.1.15,2013-02-08 08:50:00,
2013-02-08 03:55:00,27.2,24.4,30.38,ENE,68,0.0,-999.0,89,0.00,,,0.00,Wunderground v.1.15,2013-02-08 08:55:00,
2013-02-08 04:00:00,27.2,24.4,30.38,ENE,68,0.0,-999.0,89,0.00,,,0.00,Wunderground v.1.15,2013-02-08 09:00:00,
2013-02-08 04:05:00,27.4,26.4,30.38,ENE,68,0.0,-999.0,96,0.00,,,0.00,Wunderground v.1.15,2013-02-08 09:05:00,
2013-02-08 04:10:00,27.4,26.4,30.38,ENE,68,0.0,-999.0,96,0.00,,,0.00,Wunderground v.1.15,2013-02-08 09:10:00,
2013-02-08 04:15:00,27.5,25.0,30.37,NE,45,0.0,-999.0,90,0.00,,,0.00,Wunderground v.1.15,2013-02-08 09:15:00,
2013-02-08 04:20:00,27.5,25.0,30.37,NE,45,0.0,-999.0,90,0.00,,,0.00,Wunderground v.1.15,2013-02-08 09:20:00,
2013-02-08 04:25:00,27.7,25.2,30.37,NE,45,1.0,-999.0,90,0.00,,,0.00,Wunderground v.1.15,2013-02-08 09:25:00,
2013-02-08 04:30:00,27.7,25.2,30.37,NE,45,1.0,-999.0,90,0.00,,,0.00,Wunderground v.1.15,2013-02-08 09:30:00,
2013-02-08 04:35:00,27.8,25.2,30.37,NE,45,1.0,-999.0,90,0.00,,,0.00,Wunderground v.1.15,2013-02-08 09:35:00,
2013-02-08 04:40:00,27.8,25.2,30.37,NE,45,1.0,-999.0,90,0.00,,,0.00,Wunderground v.1.15,2013-02-08 09:40:00,
2013-02-08 04:45:00,27.9,25.3,30.36,NNE,23,0.0,-999.0,90,0.00,,,0.00,Wunderground v.1.15,2013-02-08 09:45:00,
2013-02-08 04:50:00,27.9,25.3,30.36,NNE,23,0.0,-999.0,90,0.00,,,0.00,Wunderground v.1.15,2013-02-08 09:50:00,
2013-02-08 04:55:00,28.0,25.4,30.36,NNE,23,0.0,-999.0,90,0.00,,,0.00,Wunderground v.1.15,2013-02-08 09:55:00,
2013-02-08 05:00:00,28.0,25.4,30.36,NNE,23,0.0,-999.0,90,0.00,,,0.00,Wunderground v.1.15,2013-02-08 10:00:00,
2013-02-08 05:05:00,28.0,25.4,30.35,NE,45,1.0,-999.0,90,0.00,,,0.00,Wunderground v.1.15,2013-02-08 10:05:00,
2013-02-08 05:10:00,28.0,25.4,30.35,NE,45,1.0,-999.0,90,0.00,,,0.00,Wunderground v.1.15,2013-02-08 10:10:00,
2013-02-08 05:15:00,28.1,25.5,30.35,NNE,23,0.0,-999.0,90,0.00,,,0.00,Wunderground v.1.15,2013-02-08 10:15:00,
2013-02-08 05:20:00,28.1,25.5,30.35,NNE,23,0.0,-999.0,90,0.00,,,0.00,Wunderground v.1.15,2013-02-08 10:20:00,
2013-02-08 05:25:00,28.1,25.5,30.35,NNE,23,0.0,-999.0,90,0.00,,,0.00,Wunderground v.1.15,2013-02-08 10:25:00,
2013-02-08 05:30:00,28.1,25.5,30.35,NNE,23,0.0,-999.0,90,0.00,,,0.00,Wunderground v.1.15,2013-02-08 10:30:00,
2013-02-08 05:35:00,28.2,25.9,30.35,NNE,23,0.0,-999.0,91,0.00,,,0.00,Wunderground v.1.15,2013-02-08 10:35:00,
2013-02-08 05:40:00,28.2,25.9,30.35,NNE,23,0.0,-999.0,91,0.00,,,0.00,Wunderground v.1.15,2013-02-08 10:40:00,
2013-02-08 05:45:00,28.2,25.9,30.34,NNE,23,0.0,-999.0,91,0.00,,,0.00,Wunderground v.1.15,2013-02-08 10:45:00,
2013-02-08 05:50:00,28.2,25.9,30.34,NNE,23,0.0,-999.0,91,0.00,,,0.00,Wunderground v.1.15,2013-02-08 10:50:00,
2013-02-08 05:55:00,28.3,26.0,30.34,NNE,23,0.0,-999.0,91,0.00,,,0.00,Wunderground v.1.15,2013-02-08 10:55:00,
2013-02-08 06:00:00,28.3,26.0,30.34,NNE,23,0.0,-999.0,91,0.00,,,0.00,Wunderground v.1.15,2013-02-08 11:00:00,
2013-02-08 06:05:00,28.4,26.1,30.33,NE,45,1.0,-999.0,91,0.00,,,0.00,Wunderground v.1.15,2013-02-08 11:05:00,
2013-02-08 06:10:00,28.4,26.1,30.33,NE,45,1.0,-999.0,91,0.00,,,0.00,Wunderground v.1.15,2013-02-08 11:10:00,
2013-02-08 06:15:00,28.5,25.9,30.33,NE,45,1.0,-999.0,90,0.00,,,0.00,Wunderground v.1.15,2013-02-08 11:15:00,
2013-02-08 06:20:00,28.5,25.9,30.33,NE,45,1.0,-999.0,90,0.00,,,0.00,Wunderground v.1.15,2013-02-08 11:20:00,
2013-02-08 06:25:00,28.7,26.1,30.33,ENE,68,1.0,-999.0,90,0.00,,,0.00,Wunderground v.1.15,2013-02-08 11:25:00,
2013-02-08 06:30:00,28.7,26.1,30.33,ENE,68,1.0,-999.0,90,0.00,,,0.00,Wunderground v.1.15,2013-02-08 11:30:00,
2013-02-08 06:35:00,28.8,26.2,30.33,NE,45,0.0,-999.0,90,0.00,,,0.00,Wunderground v.1.15,2013-02-08 11:35:00,
2013-02-08 06:40:00,28.8,26.2,30.33,NE,45,0.0,-999.0,90,0.00,,,0.00,Wunderground v.1.15,2013-02-08 11:40:00,
2013-02-08 06:45:00,29.0,26.4,30.33,NE,45,1.0,-999.0,90,0.00,,,0.00,Wunderground v.1.15,2013-02-08 11:45:00,
2013-02-08 06:50:00,29.0,26.4,30.33,NE,45,1.0,-999.0,90,0.00,,,0.00,Wunderground v.1.15,2013-02-08 11:50:00,
2013-02-08 06:55:00,29.2,26.6,30.33,ENE,68,0.0,-999.0,90,0.00,,,0.00,Wunderground v.1.15,2013-02-08 11:55:00,
2013-02-08 07:00:00,29.2,26.6,30.33,ENE,68,0.0,-999.0,90,0.00,,,0.00,Wunderground v.1.15,2013-02-08 12:00:00,
2013-02-08 07:05:00,29.4,26.8,30.32,NE,45,1.0,-999.0,90,0.00,,,0.00,Wunderground v.1.15,2013-02-08 12:05:00,
2013-02-08 07:10:00,29.4,26.8,30.32,NE,45,1.0,-999.0,90,0.00,,,0.00,Wunderground v.1.15,2013-02-08 12:10:00,
2013-02-08 07:15:00,29.6,27.0,30.33,NE,45,1.0,-999.0,90,0.00,,,0.00,Wunderground v.1.15,2013-02-08 12:15:00,
2013-02-08 07:20:00,29.6,27.0,30.33,NE,45,1.0,-999.0,90,0.00,,,0.00,Wunderground v.1.15,2013-02-08 12:20:00,
2013-02-08 07:25:00,29.7,27.1,30.31,NE,45,1.0,-999.0,90,0.00,,,0.00,Wunderground v.1.15,2013-02-08 12:25:00,
2013-02-08 07:30:00,29.7,27.1,30.31,NE,45,1.0,-999.0,90,0.00,,,0.00,Wunderground v.1.15,2013-02-08 12:30:00,
2013-02-08 07:35:00,29.9,27.3,30.31,NE,45,1.0,-999.0,90,0.00,,,0.00,Wunderground v.1.15,2013-02-08 12:35:00,
2013-02-08 07:40:00,29.9,27.3,30.31,NE,45,1.0,-999.0,90,0.00,,,0.00,Wunderground v.1.15,2013-02-08 12:40:00,
2013-02-08 07:45:00,30.0,27.2,30.31,NE,45,2.0,-999.0,89,0.00,,,0.00,Wunderground v.1.15,2013-02-08 12:45:00,
2013-02-08 07:50:00,30.0,27.2,30.31,NE,45,2.0,-999.0,89,0.00,,,0.00,Wunderground v.1.15,2013-02-08 12:50:00,
2013-02-08 07:55:00,30.2,27.3,30.31,ENE,68,1.0,-999.0,89,0.00,,,0.00,Wunderground v.1.15,2013-02-08 12:55:00,
2013-02-08 08:00:00,30.2,27.3,30.31,ENE,68,1.0,-999.0,89,0.00,,,0.00,Wunderground v.1.15,2013-02-08 13:00:00,
2013-02-08 08:05:00,30.4,27.5,30.30,NNE,23,2.0,-999.0,89,0.00,,,0.00,Wunderground v.1.15,2013-02-08 13:05:00,
2013-02-08 08:10:00,30.4,27.5,30.30,NNE,23,2.0,-999.0,89,0.00,,,0.00,Wunderground v.1.15,2013-02-08 13:10:00,
2013-02-08 08:15:00,30.5,27.6,30.29,NE,45,2.0,-999.0,89,0.00,,,0.00,Wunderground v.1.15,2013-02-08 13:15:00,
2013-02-08 08:20:00,30.5,27.6,30.29,NE,45,2.0,-999.0,89,0.00,,,0.00,Wunderground v.1.15,2013-02-08 13:20:00,
2013-02-08 08:25:00,30.6,27.7,30.29,NE,45,1.0,-999.0,89,0.00,,,0.00,Wunderground v.1.15,2013-02-08 13:25:00,
2013-02-08 08:30:00,30.6,27.7,30.29,NE,45,1.0,-999.0,89,0.00,,,0.00,Wunderground v.1.15,2013-02-08 13:30:00,
2013-02-08 08:35:00,30.8,27.9,30.29,ENE,68,1.0,-999.0,89,0.00,,,0.00,Wunderground v.1.15,2013-02-08 13:35:00,
2013-02-08 08:40:00,30.8,27.9,30.29,ENE,68,1.0,-999.0,89,0.00,,,0.00,Wunderground v.1.15,2013-02-08 13:40:00,
2013-02-08 08:45:00,30.8,28.5,30.28,NE,45,2.0,-999.0,91,0.00,,,0.00,Wunderground v.1.15,2013-02-08 13:45:00,
2013-02-08 08:50:00,30.8,28.5,30.28,NE,45,2.0,-999.0,91,0.00,,,0.00,Wunderground v.1.15,2013-02-08 13:50:00,
2013-02-08 08:55:00,30.7,28.7,30.27,NE,45,2.0,-999.0,92,0.00,,,0.00,Wunderground v.1.15,2013-02-08 13:55:00,
2013-02-08 09:00:00,30.7,28.7,30.27,NE,45,2.0,-999.0,92,0.00,,,0.00,Wunderground v.1.15,2013-02-08 14:00:00,
2013-02-08 09:05:00,30.6,29.1,30.27,ENE,68,1.0,-999.0,94,0.00,,,0.00,Wunderground v.1.15,2013-02-08 14:05:00,
2013-02-08 09:10:00,30.6,29.1,30.27,ENE,68,1.0,-999.0,94,0.00,,,0.00,Wunderground v.1.15,2013-02-08 14:10:00,
2013-02-08 09:15:00,30.7,29.2,30.26,NE,45,1.0,-999.0,94,0.00,,,0.00,Wunderground v.1.15,2013-02-08 14:15:00,
2013-02-08 09:20:00,30.7,29.2,30.26,NE,45,1.0,-999.0,94,0.00,,,0.00,Wunderground v.1.15,2013-02-08 14:20:00,
2013-02-08 09:25:00,30.8,29.5,30.26,NE,45,1.0,-999.0,95,0.00,,,0.00,Wunderground v.1.15,2013-02-08 14:25:00,
2013-02-08 09:30:00,30.7,29.2,30.26,NE,52,1.0,1.0,94,0.00,,,0.00,Wunderground v.1.15,2013-02-08 14:30:00,
2013-02-08 09:35:00,30.8,29.5,30.26,ENE,68,1.0,-999.0,95,0.00,,,0.00,Wunderground v.1.15,2013-02-08 14:35:00,
2013-02-08 09:40:00,30.8,29.5,30.26,ENE,68,1.0,-999.0,95,0.00,,,0.00,Wunderground v.1.15,2013-02-08 14:40:00,
2013-02-08 09:45:00,30.9,29.6,30.25,NE,45,1.0,-999.0,95,0.00,,,0.00,Wunderground v.1.15,2013-02-08 14:45:00,
2013-02-08 09:50:00,30.9,29.6,30.25,NE,45,1.0,-999.0,95,0.00,,,0.00,Wunderground v.1.15,2013-02-08 14:50:00,
2013-02-08 09:55:00,30.9,29.6,30.25,ENE,68,2.0,-999.0,95,0.00,,,0.00,Wunderground v.1.15,2013-02-08 14:55:00,
2013-02-08 10:00:00,30.9,29.6,30.25,ENE,68,2.0,-999.0,95,0.00,,,0.00,Wunderground v.1.15,2013-02-08 15:00:00,
2013-02-08 10:05:00,30.9,29.9,30.23,NE,45,2.0,-999.0,96,0.00,,,0.00,Wunderground v.1.15,2013-02-08 15:05:00,
2013-02-08 10:10:00,30.9,29.9,30.23,NE,45,2.0,-999.0,96,0.00,,,0.00,Wunderground v.1.15,2013-02-08 15:10:00,
2013-02-08 10:15:00,30.9,29.9,30.23,NE,45,2.0,-999.0,96,0.00,,,0.00,Wunderground v.1.15,2013-02-08 15:15:00,
2013-02-08 10:20:00,30.9,29.9,30.23,NE,45,2.0,-999.0,96,0.00,,,0.00,Wunderground v.1.15,2013-02-08 15:20:00,
2013-02-08 10:25:00,31.1,30.1,30.22,ENE,68,2.0,-999.0,96,0.00,,,0.00,Wunderground v.1.15,2013-02-08 15:25:00,
2013-02-08 10:30:00,31.1,30.1,30.22,ENE,68,2.0,-999.0,96,0.00,,,0.00,Wunderground v.1.15,2013-02-08 15:30:00,
2013-02-08 10:35:00,31.2,30.4,30.21,NE,45,3.0,-999.0,97,0.00,,,0.00,Wunderground v.1.15,2013-02-08 15:35:00,
2013-02-08 10:40:00,31.2,30.4,30.21,NE,45,3.0,-999.0,97,0.00,,,0.00,Wunderground v.1.15,2013-02-08 15:40:00,
2013-02-08 10:45:00,31.3,30.5,30.20,NE,45,2.0,-999.0,97,0.00,,,0.00,Wunderground v.1.15,2013-02-08 15:45:00,
2013-02-08 10:50:00,31.3,30.5,30.20,NE,45,2.0,-999.0,97,0.00,,,0.00,Wunderground v.1.15,2013-02-08 15:50:00,
2013-02-08 10:55:00,31.5,30.7,30.19,NE,45,3.0,-999.0,97,0.00,,,0.00,Wunderground v.1.15,2013-02-08 15:55:00,
2013-02-08 11:00:00,31.5,30.7,30.19,NE,45,3.0,-999.0,97,0.00,,,0.00,Wunderground v.1.15,2013-02-08 16:00:00,
2013-02-08 11:05:00,31.7,30.9,30.18,ENE,68,2.0,-999.0,97,0.00,,,0.00,Wunderground v.1.15,2013-02-08 16:05:00,
2013-02-08 11:10:00,31.7,30.9,30.18,ENE,68,2.0,-999.0,97,0.00,,,0.00,Wunderground v.1.15,2013-02-08 16:10:00,
2013-02-08 11:15:00,31.7,30.7,30.16,NE,45,3.0,-999.0,96,0.00,,,0.00,Wunderground v.1.15,2013-02-08 16:15:00,
2013-02-08 11:20:00,31.7,30.7,30.16,NE,45,3.0,-999.0,96,0.00,,,0.00,Wunderground v.1.15,2013-02-08 16:20:00,
2013-02-08 11:25:00,31.8,31.0,30.15,NE,45,2.0,-999.0,97,0.00,,,0.00,Wunderground v.1.15,2013-02-08 16:25:00,
2013-02-08 11:30:00,31.8,31.0,30.15,NE,45,2.0,-999.0,97,0.00,,,0.00,Wunderground v.1.15,2013-02-08 16:30:00,
2013-02-08 11:35:00,31.9,31.1,30.14,ENE,68,3.0,-999.0,97,0.00,,,0.00,Wunderground v.1.15,2013-02-08 16:35:00,
2013-02-08 11:40:00,31.9,31.1,30.14,ENE,68,3.0,-999.0,97,0.00,,,0.00,Wunderground v.1.15,2013-02-08 16:40:00,
2013-02-08 11:45:00,31.9,31.1,30.13,NE,45,2.0,-999.0,97,0.00,,,0.00,Wunderground v.1.15,2013-02-08 16:45:00,
2013-02-08 11:50:00,31.9,31.1,30.13,NE,45,2.0,-999.0,97,0.00,,,0.00,Wunderground v.1.15,2013-02-08 16:50:00,
2013-02-08 11:55:00,32.0,31.2,30.11,NE,45,3.0,-999.0,97,0.00,,,0.00,Wunderground v.1.15,2013-02-08 16:55:00,
2013-02-08 12:00:00,32.0,31.2,30.11,NE,45,3.0,-999.0,97,0.00,,,0.00,Wunderground v.1.15,2013-02-08 17:00:00,
2013-02-08 12:05:00,32.1,31.3,30.10,NE,45,3.0,-999.0,97,0.00,,,0.00,Wunderground v.1.15,2013-02-08 17:05:00,
2013-02-08 12:10:00,32.1,31.3,30.10,NE,45,3.0,-999.0,97,0.00,,,0.00,Wunderground v.1.15,2013-02-08 17:10:00,
2013-02-08 12:15:00,32.2,31.4,30.10,NE,45,2.0,-999.0,97,0.00,,,0.00,Wunderground v.1.15,2013-02-08 17:15:00,
2013-02-08 12:20:00,32.2,31.4,30.10,NE,45,2.0,-999.0,97,0.00,,,0.00,Wunderground v.1.15,2013-02-08 17:20:00,
2013-02-08 12:25:00,32.3,31.5,30.09,NE,45,2.0,-999.0,97,0.00,,,0.00,Wunderground v.1.15,2013-02-08 17:25:00,
2013-02-08 12:30:00,32.3,31.5,30.09,NE,45,2.0,-999.0,97,0.00,,,0.00,Wunderground v.1.15,2013-02-08 17:30:00,
2013-02-08 12:35:00,32.4,31.9,30.08,NE,45,3.0,-999.0,98,0.00,,,0.00,Wunderground v.1.15,2013-02-08 17:35:00,
2013-02-08 12:40:00,32.4,31.9,30.08,NE,45,3.0,-999.0,98,0.00,,,0.00,Wunderground v.1.15,2013-02-08 17:40:00,
2013-02-08 12:45:00,32.5,32.0,30.08,NE,45,3.0,-999.0,98,0.00,,,0.00,Wunderground v.1.15,2013-02-08 17:45:00,
2013-02-08 12:50:00,32.5,32.0,30.08,NE,45,3.0,-999.0,98,0.00,,,0.00,Wunderground v.1.15,2013-02-08 17:50:00,
2013-02-08 12:55:00,32.5,32.0,30.07,ENE,68,3.0,-999.0,98,0.00,,,0.00,Wunderground v.1.15,2013-02-08 17:55:00,
2013-02-08 13:00:00,32.5,32.0,30.07,ENE,68,3.0,-999.0,98,0.00,,,0.00,Wunderground v.1.15,2013-02-08 18:00:00,
2013-02-08 13:05:00,32.6,32.1,30.06,NE,45,3.0,-999.0,98,0.00,,,0.00,Wunderground v.1.15,2013-02-08 18:05:00,
2013-02-08 13:10:00,32.6,32.1,30.06,NE,45,3.0,-999.0,98,0.00,,,0.00,Wunderground v.1.15,2013-02-08 18:10:00,
2013-02-08 13:15:00,32.5,32.0,30.05,NE,45,3.0,-999.0,98,0.00,,,0.00,Wunderground v.1.15,2013-02-08 18:15:00,
2013-02-08 13:20:00,32.5,32.0,30.05,NE,45,3.0,-999.0,98,0.00,,,0.00,Wunderground v.1.15,2013-02-08 18:20:00,
2013-02-08 13:25:00,32.5,32.0,30.04,NE,45,3.0,-999.0,98,0.00,,,0.00,Wunderground v.1.15,2013-02-08 18:25:00,
2013-02-08 13:30:00,32.5,32.0,30.04,NE,45,3.0,-999.0,98,0.00,,,0.00,Wunderground v.1.15,2013-02-08 18:30:00,
2013-02-08 13:35:00,32.5,32.0,30.03,NNE,23,3.0,-999.0,98,0.00,,,0.00,Wunderground v.1.15,2013-02-08 18:35:00,
2013-02-08 13:40:00,32.5,32.0,30.03,NNE,23,3.0,-999.0,98,0.00,,,0.00,Wunderground v.1.15,2013-02-08 18:40:00,
2013-02-08 13:45:00,32.5,32.0,30.02,NE,45,4.0,-999.0,98,0.00,,,0.00,Wunderground v.1.15,2013-02-08 18:45:00,
2013-02-08 13:50:00,32.5,32.0,30.02,NE,45,4.0,-999.0,98,0.00,,,0.00,Wunderground v.1.15,2013-02-08 18:50:00,
2013-02-08 13:55:00,32.4,31.9,30.01,NE,45,3.0,-999.0,98,0.00,,,0.00,Wunderground v.1.15,2013-02-08 18:55:00,
2013-02-08 14:00:00,32.4,31.9,30.01,NE,45,3.0,-999.0,98,0.00,,,0.00,Wunderground v.1.15,2013-02-08 19:00:00,
2013-02-08 14:05:00,32.4,31.9,30.00,NE,45,4.0,-999.0,98,0.00,,,0.00,Wunderground v.1.15,2013-02-08 19:05:00,
2013-02-08 14:10:00,32.4,31.9,30.00,NE,45,4.0,-999.0,98,0.00,,,0.00,Wunderground v.1.15,2013-02-08 19:10:00,
2013-02-08 14:15:00,32.4,31.9,30.00,NE,45,4.0,-999.0,98,0.00,,,0.00,Wunderground v.1.15,2013-02-08 19:15:00,
2013-02-08 14:20:00,32.4,31.9,30.00,NE,45,4.0,-999.0,98,0.00,,,0.00,Wunderground v.1.15,2013-02-08 19:20:00,
2013-02-08 14:25:00,32.4,31.9,30.00,ENE,68,3.0,-999.0,98,0.00,,,0.00,Wunderground v.1.15,2013-02-08 19:25:00,
2013-02-08 14:30:00,32.4,31.9,30.00,ENE,68,3.0,-999.0,98,0.00,,,0.00,Wunderground v.1.15,2013-02-08 19:30:00,
2013-02-08 14:35:00,32.4,31.9,29.99,ENE,68,3.0,-999.0,98,0.00,,,0.00,Wunderground v.1.15,2013-02-08 19:35:00,
2013-02-08 14:40:00,32.4,31.9,29.99,ENE,68,3.0,-999.0,98,0.00,,,0.00,Wunderground v.1.15,2013-02-08 19:40:00,
2013-02-08 14:45:00,32.5,32.0,29.97,NE,45,3.0,-999.0,98,0.00,,,0.00,Wunderground v.1.15,2013-02-08 19:45:00,
2013-02-08 14:50:00,32.5,32.0,29.97,NE,45,3.0,-999.0,98,0.00,,,0.00,Wunderground v.1.15,2013-02-08 19:50:00,
2013-02-08 14:55:00,32.4,31.9,29.95,NE,45,4.0,-999.0,98,0.00,,,0.00,Wunderground v.1.15,2013-02-08 19:55:00,
2013-02-08 15:00:00,32.4,31.9,29.95,NE,45,4.0,-999.0,98,0.00,,,0.00,Wunderground v.1.15,2013-02-08 20:00:00,
2013-02-08 15:10:00,32.4,31.9,29.94,NE,45,3.0,-999.0,98,0.00,,,0.00,Wunderground v.1.15,2013-02-08 20:10:00,
2013-02-08 15:15:00,32.4,31.9,29.93,NE,45,4.0,-999.0,98,0.00,,,0.00,Wunderground v.1.15,2013-02-08 20:15:00,
2013-02-08 15:20:00,32.4,31.9,29.93,NE,45,4.0,-999.0,98,0.00,,,0.00,Wunderground v.1.15,2013-02-08 20:20:00,
2013-02-08 15:25:00,32.4,31.9,29.91,NE,45,3.0,-999.0,98,0.00,,,0.00,Wunderground v.1.15,2013-02-08 20:25:00,
2013-02-08 15:30:00,32.4,31.9,29.91,NE,45,3.0,-999.0,98,0.00,,,0.00,Wunderground v.1.15,2013-02-08 20:30:00,
2013-02-08 15:35:00,32.4,31.9,29.90,NE,45,4.0,-999.0,98,0.00,,,0.00,Wunderground v.1.15,2013-02-08 20:35:00,
2013-02-08 15:40:00,32.4,31.9,29.90,NE,45,4.0,-999.0,98,0.00,,,0.00,Wunderground v.1.15,2013-02-08 20:40:00,
2013-02-08 15:45:00,32.4,31.9,29.89,NE,45,3.0,-999.0,98,0.00,,,0.00,Wunderground v.1.15,2013-02-08 20:45:00,
2013-02-08 15:50:00,32.4,31.9,29.89,NE,45,3.0,-999.0,98,0.00,,,0.00,Wunderground v.1.15,2013-02-08 20:50:00,
2013-02-08 15:55:00,32.4,31.9,29.89,NE,45,4.0,-999.0,98,0.00,,,0.00,Wunderground v.1.15,2013-02-08 20:55:00,
2013-02-08 16:00:00,32.4,31.9,29.89,NE,45,4.0,-999.0,98,0.00,,,0.00,Wunderground v.1.15,2013-02-08 21:00:00,
2013-02-08 16:05:00,32.4,31.9,29.88,NE,45,3.0,-999.0,98,0.00,,,0.00,Wunderground v.1.15,2013-02-08 21:05:00,
2013-02-08 16:10:00,32.4,31.9,29.88,NE,45,3.0,-999.0,98,0.00,,,0.00,Wunderground v.1.15,2013-02-08 21:10:00,
2013-02-08 16:15:00,32.4,31.9,29.86,NE,45,4.0,-999.0,98,0.00,,,0.00,Wunderground v.1.15,2013-02-08 21:15:00,
2013-02-08 16:20:00,32.4,31.9,29.86,NE,45,4.0,-999.0,98,0.00,,,0.00,Wunderground v.1.15,2013-02-08 21:20:00,
2013-02-08 16:25:00,32.3,31.8,29.85,NE,45,4.0,-999.0,98,0.00,,,0.00,Wunderground v.1.15,2013-02-08 21:25:00,
2013-02-08 16:30:00,32.3,31.8,29.85,NE,45,4.0,-999.0,98,0.00,,,0.00,Wunderground v.1.15,2013-02-08 21:30:00,
2013-02-08 16:35:00,32.3,31.8,29.84,NE,45,4.0,-999.0,98,0.00,,,0.00,Wunderground v.1.15,2013-02-08 21:35:00,
2013-02-08 16:40:00,32.3,31.8,29.84,NE,45,4.0,-999.0,98,0.00,,,0.00,Wunderground v.1.15,2013-02-08 21:40:00,
2013-02-08 16:45:00,32.2,31.7,29.84,NE,45,4.0,-999.0,98,0.00,,,0.00,Wunderground v.1.15,2013-02-08 21:45:00,
2013-02-08 16:50:00,32.2,31.7,29.84,NE,45,4.0,-999.0,98,0.00,,,0.00,Wunderground v.1.15,2013-02-08 21:50:00,
2013-02-08 16:55:00,32.1,31.6,29.83,NE,45,4.0,-999.0,98,0.00,,,0.00,Wunderground v.1.15,2013-02-08 21:55:00,
2013-02-08 17:00:00,32.1,31.6,29.83,NE,45,4.0,-999.0,98,0.00,,,0.00,Wunderground v.1.15,2013-02-08 22:00:00,
2013-02-08 17:05:00,32.1,31.6,29.84,NE,45,4.0,-999.0,98,0.00,,,0.00,Wunderground v.1.15,2013-02-08 22:05:00,
2013-02-08 17:10:00,32.1,31.6,29.84,NE,45,4.0,-999.0,98,0.00,,,0.00,Wunderground v.1.15,2013-02-08 22:10:00,
2013-02-08 17:15:00,32.0,31.5,29.83,NE,45,3.0,-999.0,98,0.00,,,0.00,Wunderground v.1.15,2013-02-08 22:15:00,
2013-02-08 17:20:00,32.0,31.5,29.83,NE,45,3.0,-999.0,98,0.00,,,0.00,Wunderground v.1.15,2013-02-08 22:20:00,
2013-02-08 17:25:00,31.9,31.4,29.82,NE,45,4.0,-999.0,98,0.00,,,0.00,Wunderground v.1.15,2013-02-08 22:25:00,
2013-02-08 17:30:00,31.9,31.4,29.82,NE,45,4.0,-999.0,98,0.00,,,0.00,Wunderground v.1.15,2013-02-08 22:30:00,
2013-02-08 17:35:00,31.9,31.4,29.81,NE,45,5.0,-999.0,98,0.00,,,0.00,Wunderground v.1.15,2013-02-08 22:35:00,
2013-02-08 17:40:00,31.9,31.4,29.81,NE,45,5.0,-999.0,98,0.00,,,0.00,Wunderground v.1.15,2013-02-08 22:40:00,
2013-02-08 17:45:00,31.8,31.3,29.81,NE,45,4.0,-999.0,98,0.00,,,0.00,Wunderground v.1.15,2013-02-08 22:45:00,
2013-02-08 17:50:00,31.8,31.3,29.81,NE,45,4.0,-999.0,98,0.00,,,0.00,Wunderground v.1.15,2013-02-08 22:50:00,
2013-02-08 17:55:00,31.8,31.3,29.79,NE,45,4.0,-999.0,98,0.00,,,0.00,Wunderground v.1.15,2013-02-08 22:55:00,
2013-02-08 18:00:00,31.8,31.3,29.79,NE,45,4.0,-999.0,98,0.00,,,0.00,Wunderground v.1.15,2013-02-08 23:00:00,
2013-02-08 18:05:00,31.8,31.3,29.78,NE,45,5.0,-999.0,98,0.00,,,0.00,Wunderground v.1.15,2013-02-08 23:05:00,
2013-02-08 18:10:00,31.8,31.3,29.78,NE,45,5.0,-999.0,98,0.00,,,0.00,Wunderground v.1.15,2013-02-08 23:10:00,
2013-02-08 18:15:00,31.8,31.3,29.78,NE,45,4.0,-999.0,98,0.00,,,0.00,Wunderground v.1.15,2013-02-08 23:15:00,
2013-02-08 18:20:00,31.8,31.3,29.78,NE,45,4.0,-999.0,98,0.00,,,0.00,Wunderground v.1.15,2013-02-08 23:20:00,
2013-02-08 18:25:00,31.7,31.2,29.77,NE,45,5.0,-999.0,98,0.00,,,0.00,Wunderground v.1.15,2013-02-08 23:25:00,
2013-02-08 18:30:00,31.7,31.2,29.77,NE,45,5.0,-999.0,98,0.00,,,0.00,Wunderground v.1.15,2013-02-08 23:30:00,
2013-02-08 18:35:00,31.7,31.2,29.75,NE,45,4.0,-999.0,98,0.00,,,0.00,Wunderground v.1.15,2013-02-08 23:35:00,
2013-02-08 18:40:00,31.7,31.2,29.75,NE,45,4.0,-999.0,98,0.00,,,0.00,Wunderground v.1.15,2013-02-08 23:40:00,
2013-02-08 18:45:00,31.7,31.2,29.74,NE,45,5.0,-999.0,98,0.00,,,0.00,Wunderground v.1.15,2013-02-08 23:45:00,
2013-02-08 18:50:00,31.7,31.2,29.74,NE,45,5.0,-999.0,98,0.00,,,0.00,Wunderground v.1.15,2013-02-08 23:50:00,
2013-02-08 18:55:00,31.7,31.2,29.73,NE,45,5.0,-999.0,98,0.00,,,0.00,Wunderground v.1.15,2013-02-08 23:55:00,
2013-02-08 19:00:00,31.7,31.2,29.73,NE,45,5.0,-999.0,98,0.00,,,0.00,Wunderground v.1.15,2013-02-09 00:00:00,
2013-02-08 19:05:00,31.7,31.2,29.73,NE,45,4.0,-999.0,98,0.00,,,0.00,Wunderground v.1.15,2013-02-09 00:05:00,
2013-02-08 19:10:00,31.7,31.2,29.73,NE,45,4.0,-999.0,98,0.00,,,0.00,Wunderground v.1.15,2013-02-09 00:10:00,
2013-02-08 19:15:00,31.7,31.2,29.71,NE,45,6.0,-999.0,98,0.00,,,0.00,Wunderground v.1.15,2013-02-09 00:15:00,
2013-02-08 19:25:00,31.7,31.2,29.69,NE,45,5.0,-999.0,98,0.00,,,0.00,Wunderground v.1.15,2013-02-09 00:25:00,
2013-02-08 19:30:00,31.7,31.2,29.69,NE,45,5.0,-999.0,98,0.00,,,0.00,Wunderground v.1.15,2013-02-09 00:30:00,
2013-02-08 19:35:00,31.7,31.2,29.69,NNE,23,5.0,-999.0,98,0.00,,,0.00,Wunderground v.1.15,2013-02-09 00:35:00,
2013-02-08 19:45:00,31.7,31.2,29.68,NNE,23,5.0,-999.0,98,0.00,,,0.00,Wunderground v.1.15,2013-02-09 00:45:00,
2013-02-08 19:50:00,31.7,31.2,29.68,NNE,23,5.0,-999.0,98,0.00,,,0.00,Wunderground v.1.15,2013-02-09 00:50:00,
2013-02-08 19:55:00,31.6,31.1,29.67,NE,45,5.0,-999.0,98,0.00,,,0.00,Wunderground v.1.15,2013-02-09 00:55:00,
2013-02-08 20:05:00,31.6,31.1,29.67,NE,45,6.0,-999.0,98,0.00,,,0.00,Wunderground v.1.15,2013-02-09 01:05:00,
2013-02-08 20:10:00,31.6,31.1,29.67,NE,45,6.0,-999.0,98,0.00,,,0.00,Wunderground v.1.15,2013-02-09 01:10:00,
2013-02-08 20:15:00,31.5,31.0,29.66,NE,45,5.0,-999.0,98,0.00,,,0.00,Wunderground v.1.15,2013-02-09 01:15:00,
2013-02-08 20:20:00,31.5,31.0,29.66,NE,45,5.0,-999.0,98,0.00,,,0.00,Wunderground v.1.15,2013-02-09 01:20:00,
2013-02-08 20:25:00,31.4,30.9,29.64,NE,45,5.0,-999.0,98,0.00,,,0.00,Wunderground v.1.15,2013-02-09 01:25:00,
2013-02-08 20:30:00,31.4,30.9,29.64,NE,45,5.0,-999.0,98,0.00,,,0.00,Wunderground v.1.15,2013-02-09 01:30:00,
2013-02-08 20:35:00,31.1,30.6,29.61,NNE,23,7.0,-999.0,98,0.00,,,0.00,Wunderground v.1.15,2013-02-09 01:35:00,
2013-02-08 20:40:00,31.1,30.6,29.61,NNE,23,7.0,-999.0,98,0.00,,,0.00,Wunderground v.1.15,2013-02-09 01:40:00,
2013-02-08 20:45:00,30.9,30.4,29.59,NNE,23,6.0,-999.0,98,0.00,,,0.00,Wunderground v.1.15,2013-02-09 01:45:00,
2013-02-08 20:50:00,30.9,30.4,29.59,NNE,23,6.0,-999.0,98,0.00,,,0.00,Wunderground v.1.15,2013-02-09 01:50:00,
2013-02-08 20:55:00,30.6,30.1,29.58,NNE,23,6.0,-999.0,98,0.00,,,0.00,Wunderground v.1.15,2013-02-09 01:55:00,
2013-02-08 21:00:00,30.6,30.1,29.58,NNE,23,6.0,-999.0,98,0.00,,,0.00,Wunderground v.1.15,2013-02-09 02:00:00,
2013-02-08 21:05:00,30.2,29.7,29.60,NE,45,6.0,-999.0,98,0.00,,,0.00,Wunderground v.1.15,2013-02-09 02:05:00,
2013-02-08 21:10:00,30.2,29.7,29.60,NE,45,6.0,-999.0,98,0.00,,,0.00,Wunderground v.1.15,2013-02-09 02:10:00,
2013-02-08 21:15:00,29.5,29.0,29.60,NNE,23,6.0,-999.0,98,0.00,,,0.00,Wunderground v.1.15,2013-02-09 02:15:00,
2013-02-08 21:20:00,29.5,29.0,29.60,NNE,23,6.0,-999.0,98,0.00,,,0.00,Wunderground v.1.15,2013-02-09 02:20:00,
2013-02-08 21:25:00,26.6,26.1,29.59,NNE,23,4.0,-999.0,98,0.00,,,0.00,Wunderground v.1.15,2013-02-09 02:25:00,
2013-02-08 21:30:00,26.6,26.1,29.59,NNE,23,4.0,-999.0,98,0.00,,,0.00,Wunderground v.1.15,2013-02-09 02:30:00,
2013-02-08 21:35:00,23.9,23.2,29.58,NNE,23,6.0,-999.0,97,0.00,,,0.00,Wunderground v.1.15,2013-02-09 02:35:00,
2013-02-08 21:40:00,23.9,23.2,29.58,NNE,23,6.0,-999.0,97,0.00,,,0.00,Wunderground v.1.15,2013-02-09 02:40:00,
2013-02-08 21:45:00,22.7,22.0,29.57,NNE,23,6.0,-999.0,97,0.00,,,0.00,Wunderground v.1.15,2013-02-09 02:45:00,
2013-02-08 21:50:00,22.7,22.0,29.57,NNE,23,6.0,-999.0,97,0.00,,,0.00,Wunderground v.1.15,2013-02-09 02:50:00,
2013-02-08 21:55:00,22.2,21.5,29.56,NNE,23,6.0,-999.0,97,0.00,,,0.00,Wunderground v.1.15,2013-02-09 02:55:00,
2013-02-08 22:00:00,22.2,21.5,29.56,NNE,23,6.0,-999.0,97,0.00,,,0.00,Wunderground v.1.15,2013-02-09 03:00:00,
2013-02-08 22:05:00,22.1,21.6,29.55,NNE,23,6.0,-999.0,98,0.00,,,0.00,Wunderground v.1.15,2013-02-09 03:05:00,
2013-02-08 22:10:00,22.1,21.6,29.55,NNE,23,6.0,-999.0,98,0.00,,,0.00,Wunderground v.1.15,2013-02-09 03:10:00,
2013-02-08 22:15:00,21.9,21.2,29.55,NNE,23,6.0,-999.0,97,0.00,,,0.00,Wunderground v.1.15,2013-02-09 03:15:00,
2013-02-08 22:20:00,21.9,21.2,29.55,NNE,23,6.0,-999.0,97,0.00,,,0.00,Wunderground v.1.15,2013-02-09 03:20:00,
2013-02-08 22:25:00,21.5,20.8,29.53,NNE,23,6.0,-999.0,97,0.00,,,0.00,Wunderground v.1.15,2013-02-09 03:25:00,
2013-02-08 22:30:00,21.5,20.8,29.53,NNE,23,6.0,-999.0,97,0.00,,,0.00,Wunderground v.1.15,2013-02-09 03:30:00,
2013-02-08 22:35:00,21.2,20.5,29.53,NNE,23,6.0,-999.0,97,0.00,,,0.00,Wunderground v.1.15,2013-02-09 03:35:00,
2013-02-08 22:40:00,21.2,20.5,29.53,NNE,23,6.0,-999.0,97,0.00,,,0.00,Wunderground v.1.15,2013-02-09 03:40:00,
2013-02-08 22:45:00,20.9,20.2,29.52,NNE,23,6.0,-999.0,97,0.00,,,0.00,Wunderground v.1.15,2013-02-09 03:45:00,
2013-02-08 22:50:00,20.9,20.2,29.52,NNE,23,6.0,-999.0,97,0.00,,,0.00,Wunderground v.1.15,2013-02-09 03:50:00,
2013-02-08 22:55:00,20.6,19.9,29.51,NNE,23,6.0,-999.0,97,0.00,,,0.00,Wunderground v.1.15,2013-02-09 03:55:00,
2013-02-08 23:00:00,20.6,19.9,29.51,NNE,23,6.0,-999.0,97,0.00,,,0.00,Wunderground v.1.15,2013-02-09 04:00:00,
2013-02-08 23:05:00,20.4,19.7,29.51,NNE,23,6.0,-999.0,97,0.00,,,0.00,Wunderground v.1.15,2013-02-09 04:05:00,
2013-02-08 23:10:00,20.4,19.7,29.51,NNE,23,6.0,-999.0,97,0.00,,,0.00,Wunderground v.1.15,2013-02-09 04:10:00,
2013-02-08 23:15:00,19.9,19.2,29.50,NNE,23,7.0,-999.0,97,0.00,,,0.00,Wunderground v.1.15,2013-02-09 04:15:00,
2013-02-08 23:20:00,19.9,19.2,29.50,NNE,23,7.0,-999.0,97,0.00,,,0.00,Wunderground v.1.15,2013-02-09 04:20:00,
2013-02-08 23:25:00,19.6,18.9,29.50,NNE,23,7.0,-999.0,97,0.00,,,0.00,Wunderground v.1.15,2013-02-09 04:25:00,
2013-02-08 23:30:00,19.6,18.9,29.50,NNE,23,7.0,-999.0,97,0.00,,,0.00,Wunderground v.1.15,2013-02-09 04:30:00,
2013-02-08 23:35:00,19.3,18.6,29.50,NNE,23,7.0,-999.0,97,0.00,,,0.00,Wunderground v.1.15,2013-02-09 04:35:00,
2013-02-08 23:40:00,19.6,18.9,29.50,NNE,21,6.0,6.0,97,0.00,,,0.00,Wunderground v.1.15,2013-02-09 04:40:00,
2013-02-08 23:45:00,19.0,18.3,29.50,NNE,23,7.0,-999.0,97,0.00,,,0.00,Wunderground v.1.15,2013-02-09 04:45:00,
2013-02-08 23:50:00,19.3,18.6,29.51,NNE,25,7.0,7.0,97,0.00,,,0.00,Wunderground v.1.15,2013-02-09 04:50:00,
2013-02-08 23:55:00,18.8,18.1,29.50,NNE,23,6.0,-999.0,97,0.00,,,0.00,Wunderground v.1.15,2013-02-09 04:55:00,